Time;durP1;ratioP1;P1;durP2;ratioP2;P2;SDS_P1;SDS_P2;PMS_P1;PMS_P2;Temp;Humidity;BMP_temperature;BMP_pressure;BME280_temperature;BME280_humidity;BME280_pressure;Samples;Min_cycle;Max_cycle;Signal;HPM_P1;HPM_P2
2021/12/26 00:02:17;;;;;;;8.48;7.45;;;;;;;21.24;17.00;98704.28;5110148;27;20051;-58
2021/12/26 00:04:42;;;;;;;8.15;7.30;;;;;;;21.29;16.93;98714.66;5091389;28;20043;-58
2021/12/26 00:07:08;;;;;;;8.68;6.97;;;;;;;21.28;17.00;98713.91;5090971;28;20039;-57
2021/12/26 00:09:33;;;;;;;7.85;7.05;;;;;;;21.28;16.99;98715.91;5122169;28;20040;-56
2021/12/26 00:11:59;;;;;;;8.02;7.05;;;;;;;21.29;16.93;98717.41;5111097;28;20028;-57
2021/12/26 00:14:24;;;;;;;9.02;7.72;;;;;;;21.28;17.04;98715.91;5097697;28;20036;-56
2021/12/26 00:16:50;;;;;;;7.97;7.18;;;;;;;21.28;16.98;98713.16;5090849;28;20046;-58
2021/12/26 00:19:16;;;;;;;7.95;6.93;;;;;;;21.29;16.88;98717.41;5090307;28;20043;-58
2021/12/26 00:21:41;;;;;;;7.95;7.07;;;;;;;21.27;16.81;98717.13;5109842;28;20066;-57
2021/12/26 00:24:07;;;;;;;8.75;7.20;;;;;;;21.29;17.01;98720.16;5108565;28;20027;-56
2021/12/26 00:26:32;;;;;;;8.25;6.90;;;;;;;21.30;16.86;98727.19;5090922;28;20126;-58
2021/12/26 00:28:59;;;;;;;8.40;7.50;;;;;;;21.29;16.75;98726.44;5090742;28;20032;-58
2021/12/26 00:31:25;;;;;;;8.10;7.03;;;;;;;21.30;16.80;98722.47;5126401;28;20035;-57
2021/12/26 00:33:50;;;;;;;8.48;7.20;;;;;;;21.30;16.74;98721.69;5130878;28;20083;-58
2021/12/26 00:36:16;;;;;;;8.45;7.20;;;;;;;21.29;17.07;98723.69;5114351;27;20039;-57
2021/12/26 00:38:42;;;;;;;8.00;6.85;;;;;;;21.30;16.68;98721.69;5120339;28;20031;-57
2021/12/26 00:41:08;;;;;;;7.55;6.40;;;;;;;21.29;16.73;98718.19;5089372;28;20085;-57
2021/12/26 00:43:33;;;;;;;8.55;7.45;;;;;;;21.29;16.82;98720.16;5117199;28;20030;-58
2021/12/26 00:46:00;;;;;;;8.15;7.30;;;;;;;21.30;16.81;98725.22;5131858;27;20027;-58
2021/12/26 00:48:25;;;;;;;7.45;6.50;;;;;;;21.30;16.78;98725.22;5091100;27;20127;-58
2021/12/26 00:50:51;;;;;;;8.45;7.50;;;;;;;21.29;16.93;98728.44;5090353;28;20039;-57
2021/12/26 00:53:16;;;;;;;7.55;6.75;;;;;;;21.30;16.87;98729.94;5091127;28;20032;-57
2021/12/26 00:55:42;;;;;;;7.15;6.40;;;;;;;21.28;16.63;98735.16;5091014;28;20121;-58
2021/12/26 00:58:08;;;;;;;7.95;7.07;;;;;;;21.30;16.86;98738.19;5090276;28;20468;-57
2021/12/26 01:00:39;;;;;;;7.90;6.88;;;;;;;21.28;16.64;98733.16;5110902;28;20141;-59
2021/12/26 01:03:05;;;;;;;8.00;6.68;;;;;;;21.30;16.86;98740.94;5126909;28;20036;-56
2021/12/26 01:05:31;;;;;;;7.45;6.40;;;;;;;21.30;16.72;98740.94;5090872;28;20268;-58
2021/12/26 01:07:58;;;;;;;7.88;6.10;;;;;;;21.30;16.69;98735.44;5100501;28;20046;-57
2021/12/26 01:10:32;;;;;;;7.30;6.57;;;;;;;21.31;16.67;98740.50;5090676;27;20038;-57
2021/12/26 01:12:57;;;;;;;7.40;6.28;;;;;;;21.31;16.82;98742.47;5105478;28;20175;-58
2021/12/26 01:15:23;;;;;;;7.22;6.53;;;;;;;21.27;16.66;98742.63;5132011;27;20031;-58
2021/12/26 01:17:55;;;;;;;6.60;5.82;;;;;;;21.31;16.66;98747.97;5108905;27;20032;-58
2021/12/26 01:20:38;;;;;;;6.63;5.93;;;;;;;21.28;16.64;98740.66;5088846;28;20403;-58
2021/12/26 01:23:04;;;;;;;7.88;6.65;;;;;;;21.30;16.71;98755.47;5091013;28;20075;-57
2021/12/26 01:25:31;;;;;;;7.18;6.38;;;;;;;21.30;16.49;98752.72;5091410;28;20024;-57
2021/12/26 01:27:56;;;;;;;6.68;5.90;;;;;;;21.30;16.65;98752.72;5094566;28;20035;-56
2021/12/26 01:30:22;;;;;;;6.82;6.05;;;;;;;21.32;16.55;98760.50;5111193;27;20027;-57
2021/12/26 01:32:47;;;;;;;7.65;6.20;;;;;;;21.31;16.63;98762.50;5107634;27;20036;-58
2021/12/26 01:35:13;;;;;;;7.72;6.47;;;;;;;21.31;16.79;98768.00;5094101;28;20035;-59
2021/12/26 01:37:38;;;;;;;8.20;6.57;;;;;;;21.31;16.91;98764.47;5099083;27;20055;-58
2021/12/26 01:40:05;;;;;;;6.93;5.80;;;;;;;21.31;16.56;98770.00;5124525;27;20039;-56
2021/12/26 01:42:33;;;;;;;7.25;6.53;;;;;;;21.31;16.76;98770.00;5100372;27;20031;-58
2021/12/26 01:44:58;;;;;;;7.38;6.38;;;;;;;21.31;16.59;98772.75;5135041;27;20038;-58
2021/12/26 01:47:24;;;;;;;7.95;6.25;;;;;;;21.32;16.68;98774.25;5134955;27;20039;-57
2021/12/26 01:49:49;;;;;;;7.68;6.63;;;;;;;21.31;16.74;98781.75;5132720;27;20083;-58
2021/12/26 01:52:15;;;;;;;6.60;5.90;;;;;;;21.30;16.62;98784.97;5104188;27;20036;-58
2021/12/26 01:54:49;;;;;;;6.40;5.72;;;;;;;21.30;16.75;98785.72;5092507;28;20051;-57
2021/12/26 01:57:17;;;;;;;6.75;6.05;;;;;;;21.29;16.74;98795.19;5093905;28;20051;-58
2021/12/26 01:59:43;;;;;;;6.72;5.88;;;;;;;21.31;16.56;98794.75;5097848;27;20038;-58
2021/12/26 02:02:09;;;;;;;6.93;5.90;;;;;;;21.30;16.78;98791.22;5134253;27;20035;-57
2021/12/26 02:04:38;;;;;;;6.47;5.30;;;;;;;21.31;16.49;98800.25;5112550;27;20062;-59
2021/12/26 02:07:04;;;;;;;6.57;5.28;;;;;;;21.31;16.74;98794.75;5093675;28;20039;-58
2021/12/26 02:09:30;;;;;;;6.10;5.40;;;;;;;21.30;16.59;98812.47;5094643;28;20047;-58
2021/12/26 02:11:55;;;;;;;6.60;5.63;;;;;;;21.29;16.56;98811.72;5092355;28;20062;-55
2021/12/26 02:14:21;;;;;;;6.30;5.68;;;;;;;21.31;16.66;98814.00;5133054;27;20031;-56
2021/12/26 02:16:47;;;;;;;6.07;5.28;;;;;;;21.30;16.59;98817.97;5116039;27;20453;-55
2021/12/26 02:19:12;;;;;;;5.80;5.20;;;;;;;21.31;16.73;98825.00;5134081;27;20697;-55
2021/12/26 02:25:08;;;;;;;6.22;5.20;;;;;;;21.31;16.60;98828.50;5132490;27;20079;-58
2021/12/26 02:29:39;;;;;;;6.38;5.68;;;;;;;21.32;16.62;98845.78;5098207;27;20552;-57
2021/12/26 02:32:05;;;;;;;5.72;5.13;;;;;;;21.32;16.43;98848.53;5132385;27;20035;-56
2021/12/26 02:34:33;;;;;;;6.20;5.47;;;;;;;21.31;16.56;98855.25;5133786;27;20038;-58
2021/12/26 02:36:59;;;;;;;5.97;5.07;;;;;;;21.31;16.39;98861.53;5134042;27;20026;-58
2021/12/26 02:39:24;;;;;;;5.63;5.03;;;;;;;21.30;16.52;98860.00;5122452;27;20028;-56
2021/12/26 02:41:50;;;;;;;5.97;4.82;;;;;;;21.31;16.41;98864.28;5090194;28;20502;-57
2021/12/26 02:44:15;;;;;;;5.53;4.70;;;;;;;21.31;16.31;98867.03;5131387;27;20034;-57
2021/12/26 02:46:41;;;;;;;5.85;4.72;;;;;;;21.31;16.59;98869.00;5133609;27;20036;-55
2021/12/26 02:49:07;;;;;;;6.13;5.38;;;;;;;21.31;16.54;98872.53;5133550;27;20130;-56
2021/12/26 02:51:33;;;;;;;6.18;5.57;;;;;;;21.31;16.54;98874.50;5130736;27;20498;-55
2021/12/26 02:53:59;;;;;;;6.65;4.72;;;;;;;21.30;16.65;98878.50;5125180;27;20043;-58
2021/12/26 02:56:24;;;;;;;4.97;4.43;;;;;;;21.30;16.33;98884.00;5092216;28;20105;-56
2021/12/26 02:58:50;;;;;;;5.53;4.68;;;;;;;21.31;16.34;98891.03;5090584;28;20411;-57
2021/12/26 03:01:21;;;;;;;5.00;4.35;;;;;;;21.31;16.48;98894.53;5127530;27;20023;-57
2021/12/26 03:03:46;;;;;;;5.07;4.55;;;;;;;21.31;16.31;98897.28;5129039;27;20035;-56
2021/12/26 03:06:19;;;;;;;5.90;4.65;;;;;;;21.30;16.42;98895.75;5105943;28;20043;-57
2021/12/26 03:08:46;;;;;;;6.32;5.03;;;;;;;21.31;16.31;98904.78;5116026;27;20085;-56
2021/12/26 03:11:12;;;;;;;5.60;5.00;;;;;;;21.29;16.59;98899.72;5092057;28;20032;-56
2021/12/26 03:13:37;;;;;;;4.90;4.32;;;;;;;21.30;16.48;98912.25;5119021;27;20066;-57
2021/12/26 03:16:03;;;;;;;5.05;4.55;;;;;;;21.30;16.52;98915.00;5131716;27;20181;-57
2021/12/26 03:18:29;;;;;;;5.70;4.60;;;;;;;21.30;16.35;98906.75;5131685;27;20042;-57
2021/12/26 03:20:54;;;;;;;5.28;4.35;;;;;;;21.31;16.46;98913.78;5131203;27;20111;-57
2021/12/26 03:23:22;;;;;;;4.93;4.28;;;;;;;21.30;16.44;98928.00;5125812;27;20028;-57
2021/12/26 03:25:47;;;;;;;4.55;4.00;;;;;;;21.30;16.47;98928.75;5092009;28;20040;-57
2021/12/26 03:28:13;;;;;;;4.82;4.13;;;;;;;21.30;16.28;98939.78;5091995;28;20032;-58
2021/12/26 03:30:39;;;;;;;4.85;4.35;;;;;;;21.31;16.22;98948.78;5112321;27;20027;-57
2021/12/26 03:33:06;;;;;;;4.97;4.43;;;;;;;21.31;16.31;98946.03;5132253;27;20367;-57
2021/12/26 03:35:32;;;;;;;5.10;4.50;;;;;;;21.30;16.24;98948.03;5132647;27;20034;-57
2021/12/26 03:37:58;;;;;;;5.65;4.47;;;;;;;21.28;16.21;98939.47;5128742;27;20513;-57
2021/12/26 03:40:24;;;;;;;5.38;3.90;;;;;;;21.29;16.43;98943.75;5091275;28;20030;-57
2021/12/26 03:42:51;;;;;;;4.72;3.90;;;;;;;21.30;16.35;98950.00;5104923;27;20051;-58
2021/12/26 03:45:17;;;;;;;5.50;4.38;;;;;;;21.25;16.44;98947.84;5114514;27;20035;-57
2021/12/26 03:47:44;;;;;;;5.05;4.05;;;;;;;21.30;16.33;98958.25;5130936;27;20034;-56
2021/12/26 03:50:10;;;;;;;4.88;3.70;;;;;;;21.29;16.16;98960.25;5126190;27;20077;-58
2021/12/26 03:52:35;;;;;;;4.15;3.72;;;;;;;21.28;16.18;98957.94;5110959;28;20028;-57
2021/12/26 03:55:01;;;;;;;4.25;3.85;;;;;;;21.29;16.35;98960.25;5096366;28;20035;-56
2021/12/26 03:57:26;;;;;;;4.80;4.18;;;;;;;21.30;16.31;98961.78;5090430;28;20510;-58
2021/12/26 03:59:52;;;;;;;4.68;3.83;;;;;;;21.28;16.31;98957.94;5100081;27;20547;-57
2021/12/26 04:02:17;;;;;;;4.53;3.78;;;;;;;21.28;16.11;98966.97;5113496;28;20031;-57
2021/12/26 04:04:43;;;;;;;4.28;3.85;;;;;;;21.28;16.13;98977.97;5127170;27;20031;-57
2021/12/26 04:07:10;;;;;;;5.30;4.15;;;;;;;21.29;16.05;98984.25;5091326;28;20472;-58
2021/12/26 04:09:35;;;;;;;4.05;3.45;;;;;;;21.28;16.22;98985.47;5110374;27;20032;-58
2021/12/26 04:12:01;;;;;;;5.05;4.38;;;;;;;21.29;16.35;98987.00;5089231;28;20048;-58
2021/12/26 04:14:26;;;;;;;4.55;3.53;;;;;;;21.30;16.18;98991.28;5131738;27;20483;-57
2021/12/26 04:16:52;;;;;;;4.70;3.83;;;;;;;21.29;16.06;98998.75;5132171;27;20031;-57
2021/12/26 04:19:17;;;;;;;4.22;3.45;;;;;;;21.28;16.19;99001.97;5132087;27;20042;-56
2021/12/26 04:21:43;;;;;;;4.50;3.55;;;;;;;21.28;16.30;99001.97;5131489;27;20088;-58
2021/12/26 04:24:08;;;;;;;4.40;3.85;;;;;;;21.29;16.28;99009.00;5101174;27;20294;-56
2021/12/26 04:26:34;;;;;;;4.20;3.58;;;;;;;21.29;16.27;99015.25;5091515;28;20086;-58
2021/12/26 04:28:59;;;;;;;4.82;3.47;;;;;;;21.25;16.13;98998.09;5091418;28;20028;-59
2021/12/26 04:31:26;;;;;;;5.15;3.90;;;;;;;21.28;16.27;99018.47;5120743;28;20168;-57
2021/12/26 04:33:51;;;;;;;4.30;3.70;;;;;;;21.28;15.84;99018.47;5110180;28;20051;-56
2021/12/26 04:36:17;;;;;;;4.07;3.50;;;;;;;21.29;16.05;99031.00;5106174;28;20028;-58
2021/12/26 04:38:43;;;;;;;4.30;3.63;;;;;;;21.29;16.10;99022.75;5107778;28;20043;-57
2021/12/26 04:41:10;;;;;;;4.03;3.33;;;;;;;21.28;16.06;99021.97;5097827;28;20059;-56
2021/12/26 04:43:37;;;;;;;3.47;3.08;;;;;;;21.28;15.87;99040.47;5105693;28;20027;-57
2021/12/26 04:46:05;;;;;;;4.45;3.53;;;;;;;21.28;16.08;99035.75;5104385;28;20031;-56
2021/12/26 04:48:32;;;;;;;3.75;2.90;;;;;;;21.27;16.08;99039.72;5088143;28;20099;-56
2021/12/26 04:50:57;;;;;;;4.57;3.90;;;;;;;21.28;16.15;99052.25;5089830;28;20028;-57
2021/12/26 04:53:23;;;;;;;3.88;3.05;;;;;;;21.25;16.18;99053.13;5104619;28;20023;-57
2021/12/26 04:55:48;;;;;;;4.25;3.58;;;;;;;21.27;15.86;99049.94;5106078;28;20036;-56
2021/12/26 04:58:14;;;;;;;3.70;3.05;;;;;;;21.27;16.15;99061.72;5100094;28;20035;-58
2021/12/26 05:00:39;;;;;;;3.95;3.25;;;;;;;21.26;16.06;99065.69;5107767;28;20035;-57
2021/12/26 05:03:07;;;;;;;3.75;3.30;;;;;;;21.28;15.96;99071.50;5112056;27;20039;-57
2021/12/26 05:05:33;;;;;;;3.85;2.97;;;;;;;21.28;15.89;99073.47;5091839;28;20092;-56
2021/12/26 05:07:58;;;;;;;3.40;2.90;;;;;;;21.27;15.74;99069.19;5116277;27;20121;-57
2021/12/26 05:10:25;;;;;;;4.25;3.17;;;;;;;21.27;15.85;99074.72;5102362;28;20036;-57
2021/12/26 05:12:50;;;;;;;4.13;3.40;;;;;;;21.27;16.09;99082.97;5111103;28;20667;-57
2021/12/26 05:15:16;;;;;;;3.65;3.25;;;;;;;21.27;15.89;99082.97;5102647;28;20124;-57
2021/12/26 05:17:42;;;;;;;3.83;3.00;;;;;;;21.27;15.97;99077.47;5111229;28;20114;-57
2021/12/26 05:20:08;;;;;;;3.60;2.88;;;;;;;21.27;15.94;99080.22;5109210;28;20036;-58
2021/12/26 05:22:34;;;;;;;3.85;2.97;;;;;;;21.25;15.97;99080.63;5104142;28;20031;-55
2021/12/26 05:24:59;;;;;;;3.67;3.00;;;;;;;21.22;15.85;99067.75;5110261;28;20076;-57
2021/12/26 05:27:25;;;;;;;4.22;3.30;;;;;;;21.26;15.71;99075.91;5101304;28;20032;-58
2021/12/26 05:29:50;;;;;;;3.60;2.85;;;;;;;21.26;16.00;99081.41;5109813;27;20041;-57
2021/12/26 05:32:17;;;;;;;3.83;2.90;;;;;;;21.26;15.90;99092.41;5108823;27;20040;-57
2021/12/26 05:34:42;;;;;;;3.72;3.00;;;;;;;21.25;15.98;99088.88;5110251;28;20127;-58
2021/12/26 05:37:09;;;;;;;4.00;3.33;;;;;;;21.25;15.90;99097.13;5102885;27;20423;-57
2021/12/26 05:39:34;;;;;;;3.53;2.83;;;;;;;21.24;15.88;99097.59;5115742;27;20067;-57
2021/12/26 05:42:00;;;;;;;3.97;2.75;;;;;;;21.25;15.85;99110.88;5101478;28;20077;-58
2021/12/26 05:44:25;;;;;;;3.40;2.63;;;;;;;21.25;15.71;99116.38;5127101;27;20028;-57
2021/12/26 05:46:51;;;;;;;3.78;2.72;;;;;;;21.25;15.92;99124.63;5099394;28;20035;-56
2021/12/26 05:49:16;;;;;;;3.53;2.80;;;;;;;21.24;15.66;99133.34;5107893;28;20407;-56
2021/12/26 05:51:42;;;;;;;4.10;3.00;;;;;;;21.24;15.83;99134.13;5109316;28;20088;-56
2021/12/26 05:54:08;;;;;;;3.40;2.70;;;;;;;21.24;15.87;99134.13;5109768;28;20027;-57
2021/12/26 05:56:34;;;;;;;3.67;2.60;;;;;;;21.25;15.53;99140.38;5103998;28;20506;-56
2021/12/26 05:58:59;;;;;;;2.88;2.47;;;;;;;21.23;15.65;99135.31;5110212;28;20038;-57
2021/12/26 06:01:25;;;;;;;3.60;2.88;;;;;;;21.24;15.83;99139.63;5114958;27;20113;-56
2021/12/26 06:03:50;;;;;;;2.95;2.40;;;;;;;21.23;15.68;99138.09;5106050;28;20044;-56
2021/12/26 06:06:16;;;;;;;3.33;2.50;;;;;;;21.23;15.67;99143.59;5107058;28;20047;-58
2021/12/26 06:08:41;;;;;;;3.60;2.72;;;;;;;21.21;15.76;99148.75;5112787;27;20035;-58
2021/12/26 06:11:07;;;;;;;3.45;2.92;;;;;;;21.22;15.69;99150.28;5090274;28;20031;-56
2021/12/26 06:13:33;;;;;;;3.70;2.60;;;;;;;21.22;15.68;99160.50;5109625;28;20055;-58
2021/12/26 06:15:59;;;;;;;3.60;2.58;;;;;;;21.22;15.75;99160.50;5110069;28;20039;-57
2021/12/26 06:18:25;;;;;;;3.00;2.20;;;;;;;21.22;15.42;99160.50;5106812;28;20097;-56
2021/12/26 06:20:50;;;;;;;3.22;2.40;;;;;;;21.19;15.61;99169.66;5105980;28;20032;-58
2021/12/26 06:23:16;;;;;;;3.42;2.80;;;;;;;21.19;15.68;99175.94;5100963;28;20102;-57
2021/12/26 06:25:41;;;;;;;3.10;2.45;;;;;;;21.21;15.57;99178.22;5103838;28;20027;-57
2021/12/26 06:28:07;;;;;;;3.15;2.50;;;;;;;21.20;15.71;99180.22;5108634;28;20027;-56
2021/12/26 06:30:33;;;;;;;4.07;2.70;;;;;;;21.18;15.66;99179.91;5113939;27;20422;-57
2021/12/26 06:32:58;;;;;;;3.13;2.55;;;;;;;21.20;15.60;99190.44;5103621;27;20126;-57
2021/12/26 06:35:24;;;;;;;3.17;2.58;;;;;;;21.20;15.44;99187.69;5102595;28;20133;-57
2021/12/26 06:37:49;;;;;;;3.50;2.28;;;;;;;21.20;15.57;99196.72;5107494;27;20038;-57
2021/12/26 06:40:15;;;;;;;3.25;2.50;;;;;;;21.19;15.51;99200.69;5108856;27;20027;-56
2021/12/26 06:42:43;;;;;;;3.25;2.47;;;;;;;21.19;15.69;99200.69;5109504;27;20441;-58
2021/12/26 06:45:09;;;;;;;3.30;2.35;;;;;;;21.20;15.72;99204.19;5105090;28;20346;-56
2021/12/26 06:47:35;;;;;;;3.30;2.35;;;;;;;21.19;15.51;99205.41;5109744;27;20115;-58
2021/12/26 06:50:01;;;;;;;3.40;2.53;;;;;;;21.19;15.57;99208.16;5102798;27;20040;-58
2021/12/26 06:52:26;;;;;;;3.05;2.45;;;;;;;21.18;15.46;99212.91;5092185;28;20047;-58
2021/12/26 06:54:52;;;;;;;3.17;2.63;;;;;;;21.18;15.70;99214.88;5102936;28;20035;-57
2021/12/26 06:57:17;;;;;;;3.03;2.20;;;;;;;21.18;15.48;99217.63;5099912;28;20106;-57
2021/12/26 06:59:43;;;;;;;3.03;2.30;;;;;;;21.09;15.63;99207.31;5105214;27;20031;-58
2021/12/26 07:02:09;;;;;;;3.20;2.40;;;;;;;21.18;15.44;99237.66;5110872;27;20032;-57
2021/12/26 07:04:34;;;;;;;3.00;2.40;;;;;;;21.17;15.75;99236.13;5092822;28;20460;-58
2021/12/26 07:07:00;;;;;;;3.80;2.83;;;;;;;21.17;15.58;99243.59;5096831;28;20111;-58
2021/12/26 07:09:25;;;;;;;3.75;2.80;;;;;;;21.19;15.55;99243.94;5112715;27;20419;-58
2021/12/26 07:11:51;;;;;;;3.22;2.47;;;;;;;21.17;15.44;99241.63;5099401;28;20088;-58
2021/12/26 07:14:16;;;;;;;3.55;2.67;;;;;;;21.16;15.61;99250.31;5100376;28;20035;-58
2021/12/26 07:16:42;;;;;;;3.78;2.50;;;;;;;21.13;15.57;99249.25;5092602;28;20032;-59
2021/12/26 07:19:07;;;;;;;3.97;2.60;;;;;;;21.16;15.67;99255.81;5096700;28;20046;-57
2021/12/26 07:21:33;;;;;;;3.45;2.53;;;;;;;21.16;15.51;99266.81;5094941;28;20438;-58
2021/12/26 07:23:58;;;;;;;3.03;2.55;;;;;;;21.17;15.48;99277.38;5108624;28;20081;-57
2021/12/26 07:26:24;;;;;;;3.22;2.45;;;;;;;21.14;15.44;99278.28;5109429;28;20058;-56
2021/12/26 07:28:50;;;;;;;3.05;2.30;;;;;;;21.14;15.44;99283.78;5098423;28;20028;-57
2021/12/26 07:31:15;;;;;;;3.10;2.40;;;;;;;21.06;15.44;99266.75;5097449;27;20031;-56
2021/12/26 07:33:41;;;;;;;3.22;2.28;;;;;;;21.14;15.62;99283.00;5109002;28;20034;-58
2021/12/26 07:36:07;;;;;;;3.55;2.60;;;;;;;21.14;15.63;99291.25;5096589;28;20032;-58
2021/12/26 07:38:32;;;;;;;3.92;2.75;;;;;;;21.13;15.63;99286.94;5094160;28;20031;-58
2021/12/26 07:40:58;;;;;;;3.30;2.50;;;;;;;21.09;15.75;99287.84;5107126;28;20196;-57
2021/12/26 07:43:23;;;;;;;3.40;2.67;;;;;;;21.13;15.49;99290.50;5094439;28;20480;-57
2021/12/26 07:45:49;;;;;;;3.55;2.70;;;;;;;21.13;15.38;99298.75;5093673;28;20028;-57
2021/12/26 07:48:14;;;;;;;4.28;3.03;;;;;;;21.11;15.26;99296.41;5105083;28;20024;-58
2021/12/26 07:50:40;;;;;;;3.38;2.58;;;;;;;21.13;15.41;99289.69;5101206;28;20035;-57
2021/12/26 07:53:10;;;;;;;3.13;2.42;;;;;;;21.13;15.61;99296.00;5107355;28;20085;-57
2021/12/26 07:55:36;;;;;;;3.47;2.60;;;;;;;21.12;15.37;99297.19;5107299;28;20028;-58
2021/12/26 07:58:01;;;;;;;3.13;2.28;;;;;;;21.11;15.42;99287.41;5107357;28;20069;-56
2021/12/26 08:00:27;;;;;;;3.38;2.85;;;;;;;21.10;15.45;99291.34;5108593;27;20059;-57
2021/12/26 08:02:54;;;;;;;3.70;2.33;;;;;;;21.10;15.49;99299.63;5106409;27;20023;-58
2021/12/26 08:05:19;;;;;;;3.75;2.90;;;;;;;21.10;15.44;99305.09;5087458;28;20070;-57
2021/12/26 08:07:45;;;;;;;2.92;2.42;;;;;;;21.10;15.31;99311.38;5107031;28;20058;-58
2021/12/26 08:10:11;;;;;;;3.63;2.40;;;;;;;21.10;15.26;99310.63;5097986;27;20047;-58
2021/12/26 08:12:38;;;;;;;3.88;2.90;;;;;;;21.11;15.48;99315.66;5102031;28;20040;-58
2021/12/26 08:15:04;;;;;;;3.10;2.40;;;;;;;21.11;15.36;99320.41;5084002;28;20065;-57
2021/12/26 08:17:29;;;;;;;3.28;2.72;;;;;;;21.09;15.43;99320.84;5099351;28;20035;-56
2021/12/26 08:19:56;;;;;;;3.60;2.78;;;;;;;21.11;15.20;99323.16;5101457;28;20426;-58
2021/12/26 08:22:21;;;;;;;3.17;2.45;;;;;;;21.11;15.11;99334.16;5092152;28;20088;-58
2021/12/26 08:24:47;;;;;;;3.60;2.90;;;;;;;21.11;15.22;99334.91;5090151;28;20031;-57
2021/12/26 08:27:13;;;;;;;3.97;3.03;;;;;;;21.07;15.23;99331.53;5100411;28;20032;-57
2021/12/26 08:29:38;;;;;;;2.95;2.50;;;;;;;21.11;15.16;99334.16;5099861;28;20467;-59
2021/12/26 08:32:05;;;;;;;3.22;2.50;;;;;;;21.11;15.29;99328.66;5106566;27;20036;-59
2021/12/26 08:34:31;;;;;;;3.58;2.72;;;;;;;21.11;15.25;99332.16;5109325;28;20071;-57
2021/12/26 08:37:04;;;;;;;3.78;2.65;;;;;;;21.12;15.36;99338.44;5106948;28;20403;-57
2021/12/26 08:39:34;;;;;;;3.05;2.28;;;;;;;21.11;15.35;99348.66;5115194;27;20518;-58
2021/12/26 08:41:59;;;;;;;3.53;2.70;;;;;;;21.11;15.42;99345.91;5105291;28;20023;-58
2021/12/26 08:44:25;;;;;;;3.28;2.58;;;;;;;21.11;15.45;99350.66;5105676;28;20127;-57
2021/12/26 08:46:50;;;;;;;3.65;2.60;;;;;;;21.10;15.45;99355.38;5102314;28;20066;-57
2021/12/26 08:49:16;;;;;;;3.58;2.50;;;;;;;21.11;15.41;99369.91;5107206;28;20570;-57
2021/12/26 08:51:42;;;;;;;3.28;2.65;;;;;;;21.11;15.31;99367.16;5104165;28;20031;-56
2021/12/26 08:54:08;;;;;;;3.58;2.65;;;;;;;21.11;15.14;99356.16;5106708;28;20039;-55
2021/12/26 08:56:33;;;;;;;3.35;2.60;;;;;;;21.11;15.30;99356.91;5110140;28;20081;-57
2021/12/26 08:58:59;;;;;;;3.70;2.50;;;;;;;21.10;15.19;99374.63;5111444;27;20039;-57
2021/12/26 09:01:24;;;;;;;3.78;2.60;;;;;;;21.10;15.21;99382.88;5102765;27;20059;-57
2021/12/26 09:03:49;;;;;;;3.55;2.70;;;;;;;21.11;15.30;99381.66;5106905;28;20046;-57
2021/12/26 09:06:15;;;;;;;3.25;2.42;;;;;;;21.11;15.10;99383.66;5099570;28;20040;-57
2021/12/26 09:08:41;;;;;;;3.80;2.80;;;;;;;21.12;15.20;99387.94;5108817;27;20433;-57
2021/12/26 09:11:06;;;;;;;3.88;2.70;;;;;;;21.10;15.20;99393.13;5098896;28;20182;-57
2021/12/26 09:13:33;;;;;;;3.55;2.80;;;;;;;21.13;15.30;99391.47;5106709;28;20105;-57
2021/12/26 09:15:59;;;;;;;3.72;2.67;;;;;;;21.11;15.26;99386.41;5102913;28;20092;-57
2021/12/26 09:18:24;;;;;;;3.20;2.70;;;;;;;21.09;15.29;99392.34;5106713;28;20388;-57
2021/12/26 09:20:50;;;;;;;3.47;2.67;;;;;;;21.11;15.11;99386.41;5096533;28;20479;-58
2021/12/26 09:23:15;;;;;;;3.72;2.70;;;;;;;21.10;15.13;99382.88;5105485;27;20080;-58
2021/12/26 09:25:41;;;;;;;4.20;2.67;;;;;;;21.11;15.24;99383.66;5082995;28;20035;-58
2021/12/26 09:28:06;;;;;;;3.78;2.75;;;;;;;21.11;15.07;99386.41;5102293;28;20036;-58
2021/12/26 09:30:32;;;;;;;3.50;2.60;;;;;;;21.11;15.13;99386.41;5115246;27;20036;-58
2021/12/26 09:32:57;;;;;;;3.22;2.50;;;;;;;21.10;15.06;99385.63;5099430;27;20368;-57
2021/12/26 09:35:23;;;;;;;3.25;2.50;;;;;;;21.08;15.14;99379.81;5092246;28;20039;-58
2021/12/26 09:37:48;;;;;;;4.22;2.45;;;;;;;21.12;15.05;99390.69;5114583;27;20031;-56
2021/12/26 09:40:14;;;;;;;3.40;2.50;;;;;;;21.12;15.26;99390.69;5101382;27;20531;-58
2021/12/26 09:42:41;;;;;;;3.45;2.58;;;;;;;21.11;15.05;99395.41;5106725;28;20080;-58
2021/12/26 09:45:09;;;;;;;3.70;2.60;;;;;;;21.11;15.16;99392.66;5102344;28;20548;-57
2021/12/26 09:47:36;;;;;;;3.40;2.45;;;;;;;21.11;15.18;99397.41;5112916;27;20430;-57
2021/12/26 09:50:02;;;;;;;3.50;2.58;;;;;;;21.12;15.33;99401.69;5109550;28;20031;-56
2021/12/26 09:52:27;;;;;;;3.47;2.60;;;;;;;21.09;15.10;99395.09;5120459;27;20032;-57
2021/12/26 09:54:53;;;;;;;3.58;2.70;;;;;;;21.12;15.33;99396.19;5101089;27;20035;-57
2021/12/26 09:57:19;;;;;;;3.83;2.88;;;;;;;21.10;15.29;99393.13;5118026;27;20103;-57
2021/12/26 09:59:47;;;;;;;3.72;2.67;;;;;;;21.09;15.14;99389.59;5116755;27;20439;-57
2021/12/26 10:02:14;;;;;;;3.80;2.72;;;;;;;21.10;15.19;99396.63;5112220;27;20471;-55
2021/12/26 10:04:40;;;;;;;3.65;2.75;;;;;;;21.12;15.26;99401.69;5112772;27;20483;-57
2021/12/26 10:07:11;;;;;;;3.35;2.50;;;;;;;21.12;14.99;99404.44;5114616;27;20108;-56
2021/12/26 10:09:38;;;;;;;3.72;2.58;;;;;;;21.13;15.32;99396.97;5116034;27;20036;-58
2021/12/26 10:12:04;;;;;;;3.88;2.67;;;;;;;21.12;15.36;99396.19;5105295;27;20036;-57
2021/12/26 10:14:31;;;;;;;3.60;2.72;;;;;;;21.11;15.14;99392.66;5102693;27;20047;-56
2021/12/26 10:17:19;;;;;;;3.25;2.30;;;;;;;21.16;15.24;99401.59;5109357;27;20547;-57
2021/12/26 10:19:45;;;;;;;3.65;2.30;;;;;;;21.13;15.16;99408.75;5111737;27;20073;-57
2021/12/26 10:22:17;;;;;;;3.60;2.63;;;;;;;21.13;15.16;99406.00;5116943;27;20073;-56
2021/12/26 10:24:45;;;;;;;3.30;2.50;;;;;;;21.13;15.25;99407.97;5109171;27;20089;-57
2021/12/26 10:27:13;;;;;;;3.60;2.67;;;;;;;21.04;15.11;99401.16;5113562;27;20130;-56
2021/12/26 10:29:40;;;;;;;3.97;2.47;;;;;;;21.13;15.14;99405.22;5110605;27;20130;-57
2021/12/26 10:32:34;;;;;;;3.65;2.60;;;;;;;21.16;15.11;99415.34;5114313;27;20333;-57
2021/12/26 10:35:06;;;;;;;2.90;2.40;;;;;;;21.14;15.25;99415.03;5110837;27;20030;-57
2021/12/26 10:37:44;;;;;;;4.38;2.60;;;;;;;21.15;15.35;99425.59;5110494;27;20118;-58
2021/12/26 10:40:22;;;;;;;3.17;2.50;;;;;;;21.15;15.18;99422.06;5108621;27;20035;-55
2021/12/26 10:42:58;;;;;;;3.63;2.65;;;;;;;21.16;15.02;99431.84;5117623;27;20034;-57
2021/12/26 10:45:34;;;;;;;3.13;2.30;;;;;;;21.14;14.99;99428.78;5109294;27;20038;-57
2021/12/26 10:48:04;;;;;;;3.72;2.75;;;;;;;21.12;15.16;99426.44;5109134;27;20038;-56
2021/12/26 10:50:32;;;;;;;3.33;2.53;;;;;;;21.14;14.88;99445.28;5109908;27;20055;-60
2021/12/26 10:53:04;;;;;;;3.47;2.40;;;;;;;21.16;15.16;99434.59;5105845;27;20031;-57
2021/12/26 10:55:32;;;;;;;3.08;2.28;;;;;;;21.15;14.97;99441.31;5109007;27;20034;-57
2021/12/26 10:57:59;;;;;;;3.28;2.63;;;;;;;21.13;15.06;99443.72;5098956;28;20114;-56
2021/12/26 11:00:33;;;;;;;3.13;2.40;;;;;;;21.14;15.19;99439.78;5105654;27;20038;-58
2021/12/26 11:03:12;;;;;;;3.47;2.47;;;;;;;21.15;15.24;99438.56;5118198;27;20035;-58
2021/12/26 11:05:44;;;;;;;3.53;2.45;;;;;;;21.13;15.26;99441.75;5097463;27;20430;-59
2021/12/26 11:08:17;;;;;;;3.58;2.58;;;;;;;21.13;15.17;99444.50;5104821;27;20031;-57
2021/12/26 11:10:52;;;;;;;3.20;2.38;;;;;;;21.14;15.06;99448.81;5102385;27;20042;-59
2021/12/26 11:13:36;;;;;;;3.00;2.40;;;;;;;21.16;15.25;99456.59;5103201;27;20127;-58
2021/12/26 11:16:06;;;;;;;3.15;2.25;;;;;;;21.14;15.25;99457.06;5107068;28;20027;-58
2021/12/26 11:18:32;;;;;;;3.03;2.40;;;;;;;21.16;15.13;99467.63;5103515;27;20112;-58
2021/12/26 11:21:02;;;;;;;3.20;2.45;;;;;;;21.14;15.18;99468.06;5102518;28;20538;-58
2021/12/26 11:23:35;;;;;;;3.30;2.42;;;;;;;21.14;15.28;99470.03;5098086;28;20072;-57
2021/12/26 11:26:01;;;;;;;3.85;2.70;;;;;;;21.15;15.25;99471.56;5101604;28;21391;-57
2021/12/26 11:28:30;;;;;;;3.55;2.60;;;;;;;21.13;15.29;99474.78;5101558;27;20042;-58
2021/12/26 11:31:10;;;;;;;3.35;2.28;;;;;;;21.17;15.15;99477.41;5101676;27;20036;-58
2021/12/26 11:33:36;;;;;;;3.38;2.60;;;;;;;21.13;15.29;99474.78;5105650;27;20036;-56
2021/12/26 11:36:03;;;;;;;3.30;2.53;;;;;;;21.14;15.24;99492.03;5101213;28;20084;-56
2021/12/26 11:38:29;;;;;;;3.00;2.25;;;;;;;21.13;15.17;99482.22;5105812;27;20099;-57